sensor_id;sensor_type;location;lat;lon;timestamp;P1;durP1;ratioP1;P2;durP2;ratioP2
70071;SDS011;57434;42.794;23.302;2023-02-20T00:00:18;16.23;;;7.00;;
70071;SDS011;57434;42.794;23.302;2023-02-20T00:01:23;13.93;;;6.45;;
70071;SDS011;57434;42.794;23.302;2023-02-20T00:02:26;14.65;;;7.35;;
70071;SDS011;57434;42.794;23.302;2023-02-20T00:03:28;12.73;;;6.03;;
70071;SDS011;57434;42.794;23.302;2023-02-20T00:04:30;14.25;;;6.93;;
70071;SDS011;57434;42.794;23.302;2023-02-20T00:05:32;16.63;;;6.73;;
70071;SDS011;57434;42.794;23.302;2023-02-20T00:06:34;13.70;;;6.32;;
70071;SDS011;57434;42.794;23.302;2023-02-20T00:07:36;15.15;;;7.07;;
70071;SDS011;57434;42.794;23.302;2023-02-20T00:08:38;16.60;;;6.93;;
70071;SDS011;57434;42.794;23.302;2023-02-20T00:09:39;14.38;;;6.88;;
70071;SDS011;57434;42.794;23.302;2023-02-20T00:10:41;16.00;;;6.97;;
70071;SDS011;57434;42.794;23.302;2023-02-20T00:11:43;12.77;;;6.47;;
70071;SDS011;57434;42.794;23.302;2023-02-20T00:12:45;12.65;;;6.72;;
70071;SDS011;57434;42.794;23.302;2023-02-20T00:13:48;14.20;;;6.57;;
70071;SDS011;57434;42.794;23.302;2023-02-20T00:14:50;13.80;;;6.47;;
70071;SDS011;57434;42.794;23.302;2023-02-20T00:15:52;16.03;;;7.77;;
70071;SDS011;57434;42.794;23.302;2023-02-20T00:16:54;14.48;;;7.20;;
70071;SDS011;57434;42.794;23.302;2023-02-20T00:17:56;15.40;;;7.32;;
70071;SDS011;57434;42.794;23.302;2023-02-20T00:18:58;12.32;;;6.82;;
70071;SDS011;57434;42.794;23.302;2023-02-20T00:20:00;14.60;;;6.53;;
70071;SDS011;57434;42.794;23.302;2023-02-20T00:21:04;15.15;;;6.80;;
70071;SDS011;57434;42.794;23.302;2023-02-20T00:22:06;13.43;;;6.05;;
70071;SDS011;57434;42.794;23.302;2023-02-20T00:23:08;17.67;;;7.07;;
70071;SDS011;57434;42.794;23.302;2023-02-20T00:24:10;14.30;;;7.15;;
70071;SDS011;57434;42.794;23.302;2023-02-20T00:25:14;16.00;;;7.40;;
70071;SDS011;57434;42.794;23.302;2023-02-20T00:26:17;17.17;;;7.83;;
70071;SDS011;57434;42.794;23.302;2023-02-20T00:27:19;13.55;;;6.53;;
70071;SDS011;57434;42.794;23.302;2023-02-20T00:28:20;16.25;;;8.20;;
70071;SDS011;57434;42.794;23.302;2023-02-20T00:29:22;16.55;;;7.68;;
70071;SDS011;57434;42.794;23.302;2023-02-20T00:30:24;15.93;;;6.97;;
70071;SDS011;57434;42.794;23.302;2023-02-20T00:31:27;19.38;;;8.18;;
70071;SDS011;57434;42.794;23.302;2023-02-20T00:32:29;12.88;;;6.82;;
70071;SDS011;57434;42.794;23.302;2023-02-20T00:33:31;14.82;;;7.32;;
70071;SDS011;57434;42.794;23.302;2023-02-20T00:34:33;18.58;;;7.32;;
70071;SDS011;57434;42.794;23.302;2023-02-20T00:35:35;17.13;;;6.85;;
70071;SDS011;57434;42.794;23.302;2023-02-20T00:36:36;16.90;;;7.20;;
70071;SDS011;57434;42.794;23.302;2023-02-20T00:37:38;17.67;;;7.45;;
70071;SDS011;57434;42.794;23.302;2023-02-20T00:38:41;18.10;;;8.10;;
70071;SDS011;57434;42.794;23.302;2023-02-20T00:39:44;15.05;;;7.25;;
70071;SDS011;57434;42.794;23.302;2023-02-20T00:40:45;21.70;;;8.27;;
70071;SDS011;57434;42.794;23.302;2023-02-20T00:41:47;18.27;;;7.75;;
70071;SDS011;57434;42.794;23.302;2023-02-20T00:42:50;16.67;;;7.78;;
70071;SDS011;57434;42.794;23.302;2023-02-20T00:43:52;14.50;;;7.30;;
70071;SDS011;57434;42.794;23.302;2023-02-20T00:44:54;16.38;;;8.50;;
70071;SDS011;57434;42.794;23.302;2023-02-20T00:45:56;18.05;;;8.23;;
70071;SDS011;57434;42.794;23.302;2023-02-20T00:46:57;16.50;;;7.80;;
70071;SDS011;57434;42.794;23.302;2023-02-20T00:47:59;16.17;;;7.50;;
70071;SDS011;57434;42.794;23.302;2023-02-20T00:49:01;15.68;;;7.43;;
70071;SDS011;57434;42.794;23.302;2023-02-20T00:50:05;16.70;;;8.02;;
70071;SDS011;57434;42.794;23.302;2023-02-20T00:51:07;15.95;;;7.80;;
70071;SDS011;57434;42.794;23.302;2023-02-20T00:52:10;15.27;;;7.40;;
70071;SDS011;57434;42.794;23.302;2023-02-20T00:53:14;15.57;;;7.53;;
70071;SDS011;57434;42.794;23.302;2023-02-20T00:54:16;16.05;;;7.45;;
70071;SDS011;57434;42.794;23.302;2023-02-20T00:55:17;17.95;;;7.60;;
70071;SDS011;57434;42.794;23.302;2023-02-20T00:56:19;17.52;;;7.85;;
70071;SDS011;57434;42.794;23.302;2023-02-20T00:57:21;17.30;;;7.50;;
70071;SDS011;57434;42.794;23.302;2023-02-20T00:58:23;19.30;;;8.07;;
70071;SDS011;57434;42.794;23.302;2023-02-20T00:59:25;17.73;;;8.23;;
70071;SDS011;57434;42.794;23.302;2023-02-20T01:00:27;16.55;;;8.85;;
70071;SDS011;57434;42.794;23.302;2023-02-20T01:01:30;18.48;;;8.40;;
70071;SDS011;57434;42.794;23.302;2023-02-20T01:02:33;20.17;;;8.75;;
70071;SDS011;57434;42.794;23.302;2023-02-20T01:03:35;17.52;;;7.97;;
70071;SDS011;57434;42.794;23.302;2023-02-20T01:04:37;19.83;;;7.78;;
70071;SDS011;57434;42.794;23.302;2023-02-20T01:05:39;18.58;;;8.20;;
70071;SDS011;57434;42.794;23.302;2023-02-20T01:06:41;17.25;;;8.10;;
70071;SDS011;57434;42.794;23.302;2023-02-20T01:07:42;19.03;;;7.60;;
70071;SDS011;57434;42.794;23.302;2023-02-20T01:08:44;15.75;;;7.55;;
70071;SDS011;57434;42.794;23.302;2023-02-20T01:09:46;14.73;;;7.50;;
70071;SDS011;57434;42.794;23.302;2023-02-20T01:10:48;17.08;;;8.55;;
70071;SDS011;57434;42.794;23.302;2023-02-20T01:11:50;18.40;;;7.78;;
70071;SDS011;57434;42.794;23.302;2023-02-20T01:12:53;17.02;;;7.93;;
70071;SDS011;57434;42.794;23.302;2023-02-20T01:13:55;19.55;;;8.98;;
70071;SDS011;57434;42.794;23.302;2023-02-20T01:14:56;17.17;;;8.27;;
70071;SDS011;57434;42.794;23.302;2023-02-20T01:15:58;16.95;;;8.18;;
70071;SDS011;57434;42.794;23.302;2023-02-20T01:17:00;17.63;;;8.40;;
70071;SDS011;57434;42.794;23.302;2023-02-20T01:18:02;15.57;;;8.80;;
70071;SDS011;57434;42.794;23.302;2023-02-20T01:19:04;19.90;;;8.85;;
70071;SDS011;57434;42.794;23.302;2023-02-20T01:20:06;16.13;;;8.07;;
70071;SDS011;57434;42.794;23.302;2023-02-20T01:21:09;17.88;;;8.23;;
70071;SDS011;57434;42.794;23.302;2023-02-20T01:22:11;18.35;;;8.43;;
70071;SDS011;57434;42.794;23.302;2023-02-20T01:23:14;16.17;;;7.68;;
70071;SDS011;57434;42.794;23.302;2023-02-20T01:24:16;21.75;;;8.85;;
70071;SDS011;57434;42.794;23.302;2023-02-20T01:25:19;22.13;;;8.45;;
70071;SDS011;57434;42.794;23.302;2023-02-20T01:26:20;19.02;;;8.55;;
70071;SDS011;57434;42.794;23.302;2023-02-20T01:27:22;17.98;;;8.88;;
70071;SDS011;57434;42.794;23.302;2023-02-20T01:28:24;18.30;;;8.47;;
70071;SDS011;57434;42.794;23.302;2023-02-20T01:29:26;20.08;;;8.48;;
70071;SDS011;57434;42.794;23.302;2023-02-20T01:30:27;17.17;;;7.90;;
70071;SDS011;57434;42.794;23.302;2023-02-20T01:31:29;19.40;;;9.20;;
70071;SDS011;57434;42.794;23.302;2023-02-20T01:32:32;20.15;;;9.30;;
70071;SDS011;57434;42.794;23.302;2023-02-20T01:33:34;18.67;;;8.65;;
70071;SDS011;57434;42.794;23.302;2023-02-20T01:34:36;18.48;;;8.65;;
70071;SDS011;57434;42.794;23.302;2023-02-20T01:35:38;15.68;;;8.68;;
70071;SDS011;57434;42.794;23.302;2023-02-20T01:36:44;21.48;;;9.38;;
70071;SDS011;57434;42.794;23.302;2023-02-20T01:37:54;21.40;;;9.13;;
70071;SDS011;57434;42.794;23.302;2023-02-20T01:38:56;19.37;;;9.03;;
70071;SDS011;57434;42.794;23.302;2023-02-20T01:39:58;18.20;;;8.85;;
70071;SDS011;57434;42.794;23.302;2023-02-20T01:41:00;19.20;;;7.90;;
70071;SDS011;57434;42.794;23.302;2023-02-20T01:42:05;17.55;;;8.07;;
70071;SDS011;57434;42.794;23.302;2023-02-20T01:43:09;20.30;;;9.30;;
70071;SDS011;57434;42.794;23.302;2023-02-20T01:44:22;19.27;;;8.95;;
70071;SDS011;57434;42.794;23.302;2023-02-20T01:47:42;17.45;;;8.35;;
70071;SDS011;57434;42.794;23.302;2023-02-20T01:48:44;18.50;;;8.40;;
70071;SDS011;57434;42.794;23.302;2023-02-20T01:49:50;17.53;;;8.73;;
70071;SDS011;57434;42.794;23.302;2023-02-20T01:50:57;16.15;;;8.50;;
70071;SDS011;57434;42.794;23.302;2023-02-20T01:52:05;15.48;;;7.85;;
70071;SDS011;57434;42.794;23.302;2023-02-20T01:53:26;15.90;;;6.72;;
70071;SDS011;57434;42.794;23.302;2023-02-20T01:54:30;17.48;;;7.90;;
70071;SDS011;57434;42.794;23.302;2023-02-20T01:55:43;16.13;;;7.35;;
70071;SDS011;57434;42.794;23.302;2023-02-20T01:56:49;17.02;;;7.78;;
70071;SDS011;57434;42.794;23.302;2023-02-20T01:58:16;15.93;;;7.85;;
70071;SDS011;57434;42.794;23.302;2023-02-20T01:59:20;15.95;;;7.10;;
70071;SDS011;57434;42.794;23.302;2023-02-20T02:00:23;13.82;;;6.18;;
70071;SDS011;57434;42.794;23.302;2023-02-20T02:01:26;13.00;;;6.40;;
70071;SDS011;57434;42.794;23.302;2023-02-20T02:02:27;11.25;;;4.60;;
70071;SDS011;57434;42.794;23.302;2023-02-20T02:03:34;8.82;;;3.42;;
70071;SDS011;57434;42.794;23.302;2023-02-20T02:06:19;12.50;;;4.15;;
70071;SDS011;57434;42.794;23.302;2023-02-20T02:07:21;8.07;;;3.35;;
70071;SDS011;57434;42.794;23.302;2023-02-20T02:08:24;7.85;;;3.28;;
70071;SDS011;57434;42.794;23.302;2023-02-20T02:09:36;6.65;;;2.53;;
70071;SDS011;57434;42.794;23.302;2023-02-20T02:11:10;12.38;;;3.40;;
70071;SDS011;57434;42.794;23.302;2023-02-20T02:12:15;6.50;;;2.25;;
70071;SDS011;57434;42.794;23.302;2023-02-20T02:13:17;6.20;;;2.43;;
70071;SDS011;57434;42.794;23.302;2023-02-20T02:14:19;7.53;;;2.42;;
70071;SDS011;57434;42.794;23.302;2023-02-20T02:15:22;6.03;;;2.10;;
70071;SDS011;57434;42.794;23.302;2023-02-20T02:17:54;4.40;;;1.65;;
70071;SDS011;57434;42.794;23.302;2023-02-20T02:25:51;11.07;;;5.00;;
70071;SDS011;57434;42.794;23.302;2023-02-20T02:29:59;11.98;;;4.53;;
70071;SDS011;57434;42.794;23.302;2023-02-20T02:38:09;10.10;;;4.07;;
70071;SDS011;57434;42.794;23.302;2023-02-20T02:39:39;10.13;;;3.83;;
70071;SDS011;57434;42.794;23.302;2023-02-20T02:46:53;9.57;;;3.55;;
70071;SDS011;57434;42.794;23.302;2023-02-20T02:47:46;8.85;;;3.72;;
70071;SDS011;57434;42.794;23.302;2023-02-20T02:49:02;9.25;;;3.50;;
70071;SDS011;57434;42.794;23.302;2023-02-20T02:50:09;7.78;;;3.88;;
70071;SDS011;57434;42.794;23.302;2023-02-20T02:51:21;8.80;;;3.50;;
70071;SDS011;57434;42.794;23.302;2023-02-20T02:52:27;9.50;;;3.33;;
70071;SDS011;57434;42.794;23.302;2023-02-20T02:53:31;7.93;;;3.58;;
70071;SDS011;57434;42.794;23.302;2023-02-20T02:54:33;10.23;;;4.05;;
70071;SDS011;57434;42.794;23.302;2023-02-20T02:55:36;10.05;;;4.80;;
70071;SDS011;57434;42.794;23.302;2023-02-20T02:56:40;10.40;;;4.40;;
70071;SDS011;57434;42.794;23.302;2023-02-20T02:57:43;11.07;;;4.10;;
70071;SDS011;57434;42.794;23.302;2023-02-20T02:58:45;9.38;;;4.63;;
70071;SDS011;57434;42.794;23.302;2023-02-20T02:59:53;9.07;;;3.80;;
70071;SDS011;57434;42.794;23.302;2023-02-20T03:01:03;10.65;;;4.78;;
70071;SDS011;57434;42.794;23.302;2023-02-20T03:02:08;8.88;;;3.78;;
70071;SDS011;57434;42.794;23.302;2023-02-20T03:03:18;9.70;;;4.70;;
70071;SDS011;57434;42.794;23.302;2023-02-20T03:04:25;8.68;;;4.45;;
70071;SDS011;57434;42.794;23.302;2023-02-20T03:05:31;8.82;;;3.83;;
70071;SDS011;57434;42.794;23.302;2023-02-20T03:06:41;9.68;;;4.10;;
70071;SDS011;57434;42.794;23.302;2023-02-20T03:07:48;7.45;;;3.13;;
70071;SDS011;57434;42.794;23.302;2023-02-20T03:08:57;10.75;;;4.00;;
70071;SDS011;57434;42.794;23.302;2023-02-20T03:10:04;9.98;;;4.18;;
70071;SDS011;57434;42.794;23.302;2023-02-20T03:11:13;10.27;;;3.45;;
70071;SDS011;57434;42.794;23.302;2023-02-20T03:12:18;8.70;;;3.78;;
70071;SDS011;57434;42.794;23.302;2023-02-20T03:13:23;14.18;;;4.72;;
70071;SDS011;57434;42.794;23.302;2023-02-20T03:14:27;8.90;;;3.50;;
70071;SDS011;57434;42.794;23.302;2023-02-20T03:15:37;9.38;;;4.20;;
70071;SDS011;57434;42.794;23.302;2023-02-20T03:16:44;8.13;;;3.22;;
70071;SDS011;57434;42.794;23.302;2023-02-20T03:18:08;11.70;;;3.67;;
70071;SDS011;57434;42.794;23.302;2023-02-20T03:19:12;9.25;;;3.65;;
70071;SDS011;57434;42.794;23.302;2023-02-20T03:20:16;7.28;;;2.72;;
70071;SDS011;57434;42.794;23.302;2023-02-20T03:21:21;9.25;;;4.20;;
70071;SDS011;57434;42.794;23.302;2023-02-20T03:22:30;9.13;;;3.65;;
70071;SDS011;57434;42.794;23.302;2023-02-20T03:23:49;8.57;;;3.65;;
70071;SDS011;57434;42.794;23.302;2023-02-20T03:25:20;7.70;;;3.03;;
70071;SDS011;57434;42.794;23.302;2023-02-20T03:26:29;8.83;;;3.17;;
70071;SDS011;57434;42.794;23.302;2023-02-20T03:28:50;10.73;;;3.35;;
70071;SDS011;57434;42.794;23.302;2023-02-20T03:30:07;8.32;;;3.30;;
70071;SDS011;57434;42.794;23.302;2023-02-20T03:31:24;10.13;;;4.10;;
70071;SDS011;57434;42.794;23.302;2023-02-20T03:32:32;8.45;;;3.03;;
70071;SDS011;57434;42.794;23.302;2023-02-20T03:33:44;7.80;;;3.10;;
70071;SDS011;57434;42.794;23.302;2023-02-20T03:34:50;8.23;;;3.22;;
70071;SDS011;57434;42.794;23.302;2023-02-20T03:35:54;9.00;;;3.38;;
70071;SDS011;57434;42.794;23.302;2023-02-20T03:38:10;6.60;;;2.47;;
70071;SDS011;57434;42.794;23.302;2023-02-20T03:39:17;9.07;;;3.40;;
70071;SDS011;57434;42.794;23.302;2023-02-20T03:40:25;7.95;;;3.33;;
70071;SDS011;57434;42.794;23.302;2023-02-20T03:41:29;8.32;;;3.47;;
70071;SDS011;57434;42.794;23.302;2023-02-20T03:42:34;10.02;;;4.63;;
70071;SDS011;57434;42.794;23.302;2023-02-20T03:43:41;8.13;;;3.80;;
70071;SDS011;57434;42.794;23.302;2023-02-20T03:44:45;7.78;;;3.50;;
70071;SDS011;57434;42.794;23.302;2023-02-20T03:45:48;11.25;;;4.38;;
70071;SDS011;57434;42.794;23.302;2023-02-20T03:46:51;8.90;;;3.78;;
70071;SDS011;57434;42.794;23.302;2023-02-20T03:47:57;8.88;;;3.28;;
70071;SDS011;57434;42.794;23.302;2023-02-20T03:49:07;8.17;;;3.40;;
70071;SDS011;57434;42.794;23.302;2023-02-20T03:50:13;6.97;;;3.08;;
70071;SDS011;57434;42.794;23.302;2023-02-20T03:51:16;7.72;;;2.70;;
70071;SDS011;57434;42.794;23.302;2023-02-20T03:52:18;8.23;;;3.60;;
70071;SDS011;57434;42.794;23.302;2023-02-20T03:53:21;7.78;;;3.00;;
70071;SDS011;57434;42.794;23.302;2023-02-20T03:54:24;7.07;;;3.13;;
70071;SDS011;57434;42.794;23.302;2023-02-20T03:55:27;8.82;;;2.97;;
70071;SDS011;57434;42.794;23.302;2023-02-20T03:56:45;7.43;;;3.50;;
70071;SDS011;57434;42.794;23.302;2023-02-20T03:57:51;9.02;;;4.10;;
70071;SDS011;57434;42.794;23.302;2023-02-20T03:59:00;11.35;;;3.17;;
70071;SDS011;57434;42.794;23.302;2023-02-20T04:00:08;8.07;;;2.97;;
70071;SDS011;57434;42.794;23.302;2023-02-20T04:01:16;6.55;;;2.75;;
70071;SDS011;57434;42.794;23.302;2023-02-20T04:02:26;6.53;;;2.72;;
70071;SDS011;57434;42.794;23.302;2023-02-20T04:03:32;7.60;;;2.83;;
70071;SDS011;57434;42.794;23.302;2023-02-20T04:04:40;7.82;;;3.20;;
70071;SDS011;57434;42.794;23.302;2023-02-20T04:05:51;7.22;;;2.85;;
70071;SDS011;57434;42.794;23.302;2023-02-20T04:06:56;7.30;;;3.40;;
70071;SDS011;57434;42.794;23.302;2023-02-20T04:09:16;8.93;;;3.40;;
70071;SDS011;57434;42.794;23.302;2023-02-20T04:10:24;7.32;;;3.08;;
70071;SDS011;57434;42.794;23.302;2023-02-20T04:11:32;9.07;;;3.20;;
70071;SDS011;57434;42.794;23.302;2023-02-20T04:12:40;7.63;;;3.00;;
70071;SDS011;57434;42.794;23.302;2023-02-20T04:13:44;9.10;;;3.65;;
70071;SDS011;57434;42.794;23.302;2023-02-20T04:14:48;7.28;;;3.33;;
70071;SDS011;57434;42.794;23.302;2023-02-20T04:15:52;7.55;;;3.10;;
70071;SDS011;57434;42.794;23.302;2023-02-20T04:16:59;11.65;;;3.45;;
70071;SDS011;57434;42.794;23.302;2023-02-20T04:18:06;7.90;;;3.42;;
70071;SDS011;57434;42.794;23.302;2023-02-20T04:19:11;6.35;;;2.97;;
70071;SDS011;57434;42.794;23.302;2023-02-20T04:20:12;6.93;;;3.33;;
70071;SDS011;57434;42.794;23.302;2023-02-20T04:21:18;7.05;;;2.97;;
70071;SDS011;57434;42.794;23.302;2023-02-20T04:22:26;7.17;;;3.33;;
70071;SDS011;57434;42.794;23.302;2023-02-20T04:23:34;7.18;;;2.65;;
70071;SDS011;57434;42.794;23.302;2023-02-20T04:24:52;9.18;;;3.58;;
70071;SDS011;57434;42.794;23.302;2023-02-20T04:26:00;7.80;;;3.13;;
70071;SDS011;57434;42.794;23.302;2023-02-20T04:27:07;8.43;;;3.22;;
70071;SDS011;57434;42.794;23.302;2023-02-20T04:28:09;8.80;;;3.63;;
70071;SDS011;57434;42.794;23.302;2023-02-20T04:29:12;8.27;;;3.20;;
70071;SDS011;57434;42.794;23.302;2023-02-20T04:30:15;8.90;;;3.75;;
70071;SDS011;57434;42.794;23.302;2023-02-20T04:31:17;7.28;;;2.90;;
70071;SDS011;57434;42.794;23.302;2023-02-20T04:32:21;7.18;;;2.88;;
70071;SDS011;57434;42.794;23.302;2023-02-20T04:33:23;8.60;;;3.63;;
70071;SDS011;57434;42.794;23.302;2023-02-20T04:34:25;9.10;;;3.38;;
70071;SDS011;57434;42.794;23.302;2023-02-20T04:35:27;7.75;;;3.28;;
70071;SDS011;57434;42.794;23.302;2023-02-20T04:36:29;7.45;;;3.30;;
70071;SDS011;57434;42.794;23.302;2023-02-20T04:37:31;7.28;;;3.25;;
70071;SDS011;57434;42.794;23.302;2023-02-20T04:38:33;8.05;;;3.15;;
70071;SDS011;57434;42.794;23.302;2023-02-20T04:39:35;7.75;;;3.35;;
70071;SDS011;57434;42.794;23.302;2023-02-20T04:40:37;6.70;;;2.72;;
70071;SDS011;57434;42.794;23.302;2023-02-20T04:41:39;7.57;;;3.58;;
70071;SDS011;57434;42.794;23.302;2023-02-20T04:42:41;11.20;;;4.15;;
70071;SDS011;57434;42.794;23.302;2023-02-20T04:43:43;7.73;;;3.40;;
70071;SDS011;57434;42.794;23.302;2023-02-20T04:44:44;9.68;;;3.20;;
70071;SDS011;57434;42.794;23.302;2023-02-20T04:45:46;7.32;;;3.05;;
70071;SDS011;57434;42.794;23.302;2023-02-20T04:46:48;7.38;;;3.15;;
70071;SDS011;57434;42.794;23.302;2023-02-20T04:47:50;8.30;;;3.53;;
70071;SDS011;57434;42.794;23.302;2023-02-20T04:48:52;8.05;;;4.03;;
70071;SDS011;57434;42.794;23.302;2023-02-20T04:49:53;6.63;;;2.67;;
70071;SDS011;57434;42.794;23.302;2023-02-20T04:50:55;8.40;;;3.53;;
70071;SDS011;57434;42.794;23.302;2023-02-20T04:51:58;9.55;;;4.00;;
70071;SDS011;57434;42.794;23.302;2023-02-20T04:53:00;7.95;;;3.33;;
70071;SDS011;57434;42.794;23.302;2023-02-20T04:54:02;7.47;;;3.50;;
70071;SDS011;57434;42.794;23.302;2023-02-20T04:55:04;9.43;;;3.95;;
70071;SDS011;57434;42.794;23.302;2023-02-20T04:56:06;8.35;;;3.60;;
70071;SDS011;57434;42.794;23.302;2023-02-20T04:57:08;7.65;;;3.38;;
70071;SDS011;57434;42.794;23.302;2023-02-20T04:58:10;7.50;;;3.58;;
70071;SDS011;57434;42.794;23.302;2023-02-20T04:59:11;8.70;;;3.70;;
70071;SDS011;57434;42.794;23.302;2023-02-20T05:00:14;6.93;;;3.22;;
70071;SDS011;57434;42.794;23.302;2023-02-20T05:01:18;9.02;;;3.33;;
70071;SDS011;57434;42.794;23.302;2023-02-20T05:02:21;7.85;;;3.72;;
70071;SDS011;57434;42.794;23.302;2023-02-20T05:03:23;8.25;;;3.35;;
70071;SDS011;57434;42.794;23.302;2023-02-20T05:04:25;6.97;;;2.90;;
70071;SDS011;57434;42.794;23.302;2023-02-20T05:05:27;7.32;;;3.08;;
70071;SDS011;57434;42.794;23.302;2023-02-20T05:06:29;6.50;;;2.90;;
70071;SDS011;57434;42.794;23.302;2023-02-20T05:07:32;7.45;;;2.80;;
70071;SDS011;57434;42.794;23.302;2023-02-20T05:08:34;6.63;;;2.28;;
70071;SDS011;57434;42.794;23.302;2023-02-20T05:09:37;11.65;;;2.88;;
70071;SDS011;57434;42.794;23.302;2023-02-20T05:10:39;7.07;;;2.45;;
70071;SDS011;57434;42.794;23.302;2023-02-20T05:11:41;6.85;;;2.65;;
70071;SDS011;57434;42.794;23.302;2023-02-20T05:12:43;6.90;;;2.92;;
70071;SDS011;57434;42.794;23.302;2023-02-20T05:13:45;7.72;;;2.38;;
70071;SDS011;57434;42.794;23.302;2023-02-20T05:14:46;6.40;;;2.60;;
70071;SDS011;57434;42.794;23.302;2023-02-20T05:15:48;7.05;;;2.75;;
70071;SDS011;57434;42.794;23.302;2023-02-20T05:16:50;8.13;;;2.72;;
70071;SDS011;57434;42.794;23.302;2023-02-20T05:17:52;6.80;;;2.80;;
70071;SDS011;57434;42.794;23.302;2023-02-20T05:18:54;7.32;;;2.53;;
70071;SDS011;57434;42.794;23.302;2023-02-20T05:19:56;8.55;;;2.58;;
70071;SDS011;57434;42.794;23.302;2023-02-20T05:20:57;11.50;;;4.63;;
70071;SDS011;57434;42.794;23.302;2023-02-20T05:21:59;15.50;;;9.65;;
70071;SDS011;57434;42.794;23.302;2023-02-20T05:23:01;13.75;;;8.50;;
70071;SDS011;57434;42.794;23.302;2023-02-20T05:24:04;9.00;;;4.25;;
70071;SDS011;57434;42.794;23.302;2023-02-20T05:25:09;7.43;;;3.83;;
70071;SDS011;57434;42.794;23.302;2023-02-20T05:26:15;7.93;;;3.55;;
70071;SDS011;57434;42.794;23.302;2023-02-20T05:27:20;25.25;;;12.45;;
70071;SDS011;57434;42.794;23.302;2023-02-20T05:28:23;10.02;;;5.53;;
70071;SDS011;57434;42.794;23.302;2023-02-20T05:29:25;8.10;;;3.33;;
70071;SDS011;57434;42.794;23.302;2023-02-20T05:30:27;7.38;;;2.90;;
70071;SDS011;57434;42.794;23.302;2023-02-20T05:31:29;9.27;;;2.83;;
70071;SDS011;57434;42.794;23.302;2023-02-20T05:32:31;6.22;;;2.47;;
70071;SDS011;57434;42.794;23.302;2023-02-20T05:33:33;9.73;;;4.05;;
70071;SDS011;57434;42.794;23.302;2023-02-20T05:34:35;9.43;;;4.68;;
70071;SDS011;57434;42.794;23.302;2023-02-20T05:35:36;17.17;;;6.47;;
70071;SDS011;57434;42.794;23.302;2023-02-20T05:36:38;11.68;;;4.60;;
70071;SDS011;57434;42.794;23.302;2023-02-20T05:37:40;8.70;;;2.92;;
70071;SDS011;57434;42.794;23.302;2023-02-20T05:38:42;9.23;;;3.55;;
70071;SDS011;57434;42.794;23.302;2023-02-20T05:39:44;6.90;;;3.22;;
70071;SDS011;57434;42.794;23.302;2023-02-20T05:40:47;7.78;;;3.30;;
70071;SDS011;57434;42.794;23.302;2023-02-20T05:41:49;10.13;;;3.65;;
70071;SDS011;57434;42.794;23.302;2023-02-20T05:42:51;7.43;;;2.67;;
70071;SDS011;57434;42.794;23.302;2023-02-20T05:43:52;8.63;;;3.10;;
70071;SDS011;57434;42.794;23.302;2023-02-20T05:44:54;8.85;;;3.55;;
70071;SDS011;57434;42.794;23.302;2023-02-20T05:45:56;13.13;;;3.50;;
70071;SDS011;57434;42.794;23.302;2023-02-20T05:46:58;7.15;;;3.15;;
70071;SDS011;57434;42.794;23.302;2023-02-20T05:48:00;8.68;;;3.72;;
70071;SDS011;57434;42.794;23.302;2023-02-20T05:49:02;6.82;;;3.53;;
70071;SDS011;57434;42.794;23.302;2023-02-20T05:50:04;9.32;;;3.60;;
70071;SDS011;57434;42.794;23.302;2023-02-20T05:51:07;13.73;;;6.35;;
70071;SDS011;57434;42.794;23.302;2023-02-20T05:52:10;11.65;;;5.60;;
70071;SDS011;57434;42.794;23.302;2023-02-20T05:53:13;11.93;;;5.88;;
70071;SDS011;57434;42.794;23.302;2023-02-20T05:54:18;16.35;;;7.28;;
70071;SDS011;57434;42.794;23.302;2023-02-20T05:55:20;10.82;;;4.72;;
70071;SDS011;57434;42.794;23.302;2023-02-20T05:56:23;34.80;;;15.50;;
70071;SDS011;57434;42.794;23.302;2023-02-20T05:57:25;29.52;;;14.77;;
70071;SDS011;57434;42.794;23.302;2023-02-20T05:58:27;58.63;;;30.20;;
70071;SDS011;57434;42.794;23.302;2023-02-20T05:59:29;16.98;;;8.60;;
70071;SDS011;57434;42.794;23.302;2023-02-20T06:00:31;52.85;;;21.00;;
70071;SDS011;57434;42.794;23.302;2023-02-20T06:01:33;14.45;;;6.82;;
70071;SDS011;57434;42.794;23.302;2023-02-20T06:02:35;14.15;;;5.97;;
70071;SDS011;57434;42.794;23.302;2023-02-20T06:03:36;39.38;;;17.45;;
70071;SDS011;57434;42.794;23.302;2023-02-20T06:04:38;12.85;;;6.20;;
70071;SDS011;57434;42.794;23.302;2023-02-20T06:05:40;19.75;;;6.95;;
70071;SDS011;57434;42.794;23.302;2023-02-20T06:06:43;13.60;;;5.47;;
70071;SDS011;57434;42.794;23.302;2023-02-20T06:07:45;15.73;;;6.95;;
70071;SDS011;57434;42.794;23.302;2023-02-20T06:08:47;30.25;;;13.40;;
70071;SDS011;57434;42.794;23.302;2023-02-20T06:09:49;18.30;;;9.13;;
70071;SDS011;57434;42.794;23.302;2023-02-20T06:10:51;9.80;;;5.22;;
70071;SDS011;57434;42.794;23.302;2023-02-20T06:11:54;10.85;;;4.38;;
70071;SDS011;57434;42.794;23.302;2023-02-20T06:12:57;10.23;;;5.00;;
70071;SDS011;57434;42.794;23.302;2023-02-20T06:13:59;14.70;;;7.07;;
70071;SDS011;57434;42.794;23.302;2023-02-20T06:15:01;18.73;;;8.20;;
70071;SDS011;57434;42.794;23.302;2023-02-20T06:16:03;26.35;;;13.05;;
70071;SDS011;57434;42.794;23.302;2023-02-20T06:17:06;15.03;;;7.40;;
70071;SDS011;57434;42.794;23.302;2023-02-20T06:18:08;11.75;;;5.38;;
70071;SDS011;57434;42.794;23.302;2023-02-20T06:19:09;13.07;;;5.97;;
70071;SDS011;57434;42.794;23.302;2023-02-20T06:20:12;16.77;;;7.90;;
70071;SDS011;57434;42.794;23.302;2023-02-20T06:21:14;9.90;;;4.10;;
70071;SDS011;57434;42.794;23.302;2023-02-20T06:22:16;12.35;;;6.00;;
70071;SDS011;57434;42.794;23.302;2023-02-20T06:23:18;37.20;;;16.73;;
70071;SDS011;57434;42.794;23.302;2023-02-20T06:24:20;12.73;;;6.18;;
70071;SDS011;57434;42.794;23.302;2023-02-20T06:25:22;12.88;;;5.45;;
70071;SDS011;57434;42.794;23.302;2023-02-20T06:26:24;8.85;;;4.05;;
70071;SDS011;57434;42.794;23.302;2023-02-20T06:27:26;16.83;;;7.83;;
70071;SDS011;57434;42.794;23.302;2023-02-20T06:28:28;9.63;;;4.65;;
70071;SDS011;57434;42.794;23.302;2023-02-20T06:29:30;9.25;;;4.13;;
70071;SDS011;57434;42.794;23.302;2023-02-20T06:30:32;12.07;;;4.90;;
70071;SDS011;57434;42.794;23.302;2023-02-20T06:31:34;11.95;;;5.10;;
70071;SDS011;57434;42.794;23.302;2023-02-20T06:32:36;11.50;;;4.78;;
70071;SDS011;57434;42.794;23.302;2023-02-20T06:33:38;10.52;;;4.88;;
70071;SDS011;57434;42.794;23.302;2023-02-20T06:34:39;10.90;;;4.68;;
70071;SDS011;57434;42.794;23.302;2023-02-20T06:35:41;9.25;;;4.32;;
70071;SDS011;57434;42.794;23.302;2023-02-20T06:36:44;8.43;;;4.43;;
70071;SDS011;57434;42.794;23.302;2023-02-20T06:37:45;8.97;;;4.23;;
70071;SDS011;57434;42.794;23.302;2023-02-20T06:38:48;10.38;;;4.13;;
70071;SDS011;57434;42.794;23.302;2023-02-20T06:39:50;11.77;;;4.35;;
70071;SDS011;57434;42.794;23.302;2023-02-20T06:40:51;11.93;;;5.18;;
70071;SDS011;57434;42.794;23.302;2023-02-20T06:41:54;11.38;;;4.72;;
70071;SDS011;57434;42.794;23.302;2023-02-20T06:42:56;14.40;;;5.13;;
70071;SDS011;57434;42.794;23.302;2023-02-20T06:43:58;12.93;;;6.15;;
70071;SDS011;57434;42.794;23.302;2023-02-20T06:45:01;13.70;;;6.00;;
70071;SDS011;57434;42.794;23.302;2023-02-20T06:46:03;8.15;;;3.45;;
70071;SDS011;57434;42.794;23.302;2023-02-20T06:47:05;9.32;;;4.15;;
70071;SDS011;57434;42.794;23.302;2023-02-20T06:48:08;8.23;;;4.27;;